createdAt,value
2024-04-10T00:00:44.996Z,136.47
2024-04-10T00:01:45.009Z,132.14
2024-04-10T00:02:44.970Z,135.07
2024-04-10T00:03:45.042Z,134.88
2024-04-10T00:04:45.220Z,135.41
2024-04-10T00:05:45.105Z,134.52
2024-04-10T00:06:45.073Z,133.11
2024-04-10T00:07:45.149Z,134.05
2024-04-10T00:08:45.135Z,134.63
2024-04-10T00:09:45.170Z,132.63
2024-04-10T00:10:45.304Z,135.99
2024-04-10T00:11:45.379Z,134.40
2024-04-10T00:12:45.242Z,132.99
2024-04-10T00:13:45.328Z,132.72
2024-04-10T00:14:45.291Z,133.31
2024-04-10T00:15:45.314Z,135.65
2024-04-10T00:16:45.392Z,133.16
2024-04-10T00:17:45.565Z,133.02
2024-04-10T00:18:45.513Z,134.20
2024-04-10T00:19:45.433Z,133.78
2024-04-10T00:20:45.443Z,134.76
2024-04-10T00:21:45.460Z,133.38
2024-04-10T00:22:46.337Z,133.41
2024-04-10T00:23:45.514Z,131.77
2024-04-10T00:24:45.542Z,130.83
2024-04-10T00:25:45.579Z,132.35
2024-04-10T00:26:45.598Z,132.36
2024-04-10T00:27:45.631Z,131.95
2024-04-10T00:28:45.709Z,132.13
2024-04-10T00:29:45.691Z,130.92
2024-04-10T00:30:45.718Z,132.09
2024-04-10T00:31:45.749Z,131.64
2024-04-10T00:32:45.867Z,131.72
2024-04-10T00:33:45.861Z,131.31
2024-04-10T00:34:45.871Z,132.32
2024-04-10T00:35:45.852Z,131.11
2024-04-10T00:36:45.895Z,131.49
2024-04-10T00:37:45.937Z,131.12
2024-04-10T00:38:45.959Z,129.94
2024-04-10T00:39:45.983Z,131.85
2024-04-10T00:40:46.045Z,131.80
2024-04-10T00:41:46.041Z,130.75
2024-04-10T00:42:46.071Z,131.19
2024-04-10T00:43:46.178Z,131.78
2024-04-10T00:44:46.154Z,132.73
2024-04-10T00:45:46.188Z,131.91
2024-04-10T00:46:46.236Z,130.53
2024-04-10T00:47:46.293Z,130.85
2024-04-10T00:48:46.550Z,131.33
2024-04-10T00:49:46.393Z,129.43
2024-04-10T00:50:46.366Z,131.70
2024-04-10T00:51:46.366Z,131.23
2024-04-10T00:52:46.469Z,129.60
2024-04-10T00:53:46.435Z,131.21
2024-04-10T00:54:46.467Z,130.75
2024-04-10T00:55:46.580Z,130.39
2024-04-10T00:56:46.569Z,128.95
2024-04-10T00:57:46.546Z,129.25
2024-04-10T00:58:46.637Z,129.33
2024-04-10T00:59:46.606Z,129.93
2024-04-10T01:00:46.716Z,130.41
2024-04-10T01:01:46.848Z,129.71
2024-04-10T01:02:46.705Z,129.36
2024-04-10T01:03:47.030Z,129.75
2024-04-10T01:04:46.907Z,129.45
2024-04-10T01:05:46.833Z,130.61
2024-04-10T01:06:46.842Z,128.69
2024-04-10T01:07:46.897Z,129.17
2024-04-10T01:08:46.939Z,129.17
2024-04-10T01:09:46.956Z,129.66
2024-04-10T01:10:47.040Z,128.40
2024-04-10T01:11:47.139Z,128.48
2024-04-10T01:12:47.065Z,129.21
2024-04-10T01:13:47.172Z,128.88
2024-04-10T01:14:47.124Z,129.12
2024-04-10T01:15:47.179Z,128.43
2024-04-10T01:16:47.288Z,128.55
2024-04-10T01:17:47.318Z,126.71
2024-04-10T01:18:47.312Z,129.40
2024-04-10T01:19:47.335Z,127.82
2024-04-10T01:20:47.351Z,127.60
2024-04-10T01:21:47.385Z,127.72
2024-04-10T01:22:47.428Z,128.49
2024-04-10T01:23:47.468Z,127.54
2024-04-10T01:24:47.506Z,127.37
2024-04-10T01:25:47.589Z,126.88
2024-04-10T01:26:47.572Z,126.09
2024-04-10T01:27:47.606Z,126.24
2024-04-10T01:28:47.642Z,125.91
2024-04-10T01:29:47.687Z,125.75
2024-04-10T01:30:47.735Z,126.95
2024-04-10T01:31:47.792Z,126.62
2024-04-10T01:32:47.994Z,126.51
2024-04-10T01:33:47.954Z,126.38
2024-04-10T01:34:47.946Z,126.77
2024-04-10T01:35:47.929Z,127.19
2024-04-10T01:36:47.967Z,127.21
2024-04-10T01:37:48.030Z,128.07
2024-04-10T01:38:48.024Z,128.10
2024-04-10T01:39:48.054Z,126.64
2024-04-10T01:40:48.182Z,125.89
2024-04-10T01:41:48.127Z,125.78
2024-04-10T01:42:48.162Z,127.00
2024-04-10T01:43:48.242Z,125.21
2024-04-10T01:44:48.247Z,124.46
2024-04-10T01:45:48.299Z,124.82
2024-04-10T01:46:48.411Z,125.02
2024-04-10T01:47:48.510Z,125.43
2024-04-10T01:48:48.521Z,124.80
2024-04-10T01:49:48.525Z,125.34
2024-04-10T01:50:48.494Z,123.96
2024-04-10T01:51:48.528Z,124.81
2024-04-10T01:52:48.652Z,124.07
2024-04-10T01:53:48.613Z,124.87
2024-04-10T01:54:48.646Z,126.12
2024-04-10T01:55:48.714Z,125.04
2024-04-10T01:56:48.730Z,125.31
2024-04-10T01:57:48.755Z,126.07
2024-04-10T01:58:48.832Z,125.32
2024-04-10T01:59:48.847Z,123.75
2024-04-10T02:00:48.943Z,124.45
2024-04-10T02:01:48.973Z,124.33
2024-04-10T02:02:49.056Z,124.70
2024-04-10T02:03:49.169Z,122.15
2024-04-10T02:04:49.120Z,123.13
2024-04-10T02:05:49.085Z,124.94
2024-04-10T02:06:49.133Z,123.58
2024-04-10T02:07:49.244Z,123.62
2024-04-10T02:08:49.222Z,124.25
2024-04-10T02:09:49.268Z,123.09
2024-04-10T02:10:49.475Z,124.10
2024-04-10T02:11:49.494Z,123.14
2024-04-10T02:12:49.404Z,123.52
2024-04-10T02:13:49.566Z,122.67
2024-04-10T02:14:49.504Z,122.68
2024-04-10T02:15:49.544Z,120.48
2024-04-10T02:16:49.810Z,123.22
2024-04-10T02:17:49.735Z,120.77
2024-04-10T02:18:49.666Z,123.63
2024-04-10T02:19:49.787Z,123.59
2024-04-10T02:20:49.756Z,123.38
2024-04-10T02:21:49.789Z,122.71
2024-04-10T02:22:49.867Z,122.83
2024-04-10T02:23:49.890Z,121.30
2024-04-10T02:24:49.942Z,122.28
2024-04-10T02:25:50.059Z,123.46
2024-04-10T02:26:50.041Z,123.26
2024-04-10T02:27:50.092Z,122.62
2024-04-10T02:28:50.171Z,121.75
2024-04-10T02:29:50.188Z,122.21
2024-04-10T02:30:50.258Z,121.74
2024-04-10T02:31:50.335Z,122.07
2024-04-10T02:32:50.529Z,121.37
2024-04-10T02:33:50.454Z,121.75
2024-04-10T02:34:50.472Z,121.71
2024-04-10T02:35:50.480Z,120.94
2024-04-10T02:36:50.530Z,122.56
2024-04-10T02:37:50.600Z,120.70
2024-04-10T02:38:50.643Z,121.61
2024-04-10T02:39:50.681Z,122.20
2024-04-10T02:40:50.757Z,122.88
2024-04-10T02:41:50.778Z,120.27
2024-04-10T02:42:50.818Z,119.21
2024-04-10T02:43:50.903Z,119.40
2024-04-10T02:44:50.919Z,120.36
2024-04-10T02:45:50.969Z,122.02
2024-04-10T02:46:51.045Z,121.85
2024-04-10T02:47:51.174Z,121.54
2024-04-10T02:48:51.099Z,120.55
2024-04-10T02:49:51.214Z,120.66
2024-04-10T02:50:51.210Z,118.09
2024-04-10T02:51:51.265Z,120.30
2024-04-10T02:52:51.338Z,119.30
2024-04-10T02:53:51.374Z,119.13
2024-04-10T02:54:51.433Z,119.47
2024-04-10T02:55:51.502Z,119.53
2024-04-10T02:56:51.490Z,118.07
2024-04-10T02:57:51.533Z,121.02
2024-04-10T02:58:51.615Z,118.61
2024-04-10T02:59:51.620Z,119.84
2024-04-10T03:00:51.731Z,119.39
2024-04-10T03:01:51.771Z,121.93
2024-04-10T03:02:52.001Z,118.19
2024-04-10T03:03:51.907Z,119.72
2024-04-10T03:04:51.917Z,118.36
2024-04-10T03:05:51.923Z,119.43
2024-04-10T03:06:51.987Z,120.47
2024-04-10T03:07:52.087Z,118.63
2024-04-10T03:08:52.077Z,119.08
2024-04-10T03:09:52.108Z,119.52
2024-04-10T03:10:52.199Z,119.85
2024-04-10T03:11:52.418Z,118.17
2024-04-10T03:12:52.287Z,118.71
2024-04-10T03:13:52.381Z,118.53
2024-04-10T03:14:52.332Z,117.30
2024-04-10T03:15:52.373Z,118.80
2024-04-10T03:16:52.566Z,117.16
2024-04-10T03:17:52.656Z,117.96
2024-04-10T03:18:52.559Z,118.66
2024-04-10T03:19:52.580Z,117.98
2024-04-10T03:20:52.617Z,118.77
2024-04-10T03:21:52.662Z,118.58
2024-04-10T03:22:54.207Z,118.61
2024-04-10T03:23:52.697Z,117.46
2024-04-10T03:24:52.698Z,118.10
2024-04-10T03:25:52.729Z,118.38
2024-04-10T03:26:52.714Z,117.93
2024-04-10T03:27:52.733Z,117.14
2024-04-10T03:28:52.760Z,117.88
2024-04-10T03:29:52.727Z,117.61
2024-04-10T03:30:52.731Z,117.46
2024-04-10T03:31:52.746Z,117.30
2024-04-10T03:32:52.752Z,117.31
2024-04-10T03:33:52.764Z,117.38
2024-04-10T03:34:52.760Z,115.08
2024-04-10T03:35:52.741Z,117.12
2024-04-10T03:36:52.737Z,117.44
2024-04-10T03:37:52.778Z,116.18
2024-04-10T03:38:52.919Z,115.50
2024-04-10T03:39:52.745Z,115.55
2024-04-10T03:40:52.775Z,117.37
2024-04-10T03:41:52.747Z,115.62
2024-04-10T03:42:52.759Z,117.04
2024-04-10T03:43:52.798Z,115.60
2024-04-10T03:44:52.787Z,117.52
2024-04-10T03:45:52.879Z,114.44
2024-04-10T03:46:52.979Z,115.04
2024-04-10T03:47:52.950Z,115.35
2024-04-10T03:48:53.043Z,115.49
2024-04-10T03:49:52.842Z,114.41
2024-04-10T03:50:52.827Z,114.48
2024-04-10T03:51:52.818Z,112.89
2024-04-10T03:52:52.853Z,114.63
2024-04-10T03:53:52.868Z,114.11
2024-04-10T03:54:52.846Z,113.34
2024-04-10T03:55:52.909Z,112.97
2024-04-10T03:56:52.849Z,114.10
2024-04-10T03:57:52.866Z,114.80
2024-04-10T03:58:52.929Z,113.30
2024-04-10T03:59:52.898Z,112.88
2024-04-10T04:00:53.111Z,112.77
2024-04-10T04:01:52.917Z,112.94
2024-04-10T04:02:53.087Z,112.32
2024-04-10T04:03:52.966Z,113.28
2024-04-10T04:04:52.967Z,112.01
2024-04-10T04:05:52.951Z,111.18
2024-04-10T04:06:52.958Z,112.38
2024-04-10T04:07:52.987Z,111.68
2024-04-10T04:08:52.976Z,112.70
2024-04-10T04:09:52.983Z,111.80
2024-04-10T04:10:53.102Z,109.87
2024-04-10T04:11:53.111Z,111.19
2024-04-10T04:12:53.022Z,111.02
2024-04-10T04:13:53.095Z,109.70
2024-04-10T04:14:53.032Z,109.12
2024-04-10T04:15:53.114Z,111.54
2024-04-10T04:16:53.075Z,111.60
2024-04-10T04:17:53.139Z,108.68
2024-04-10T04:18:53.088Z,111.45
2024-04-10T04:19:53.126Z,110.04
2024-04-10T04:20:53.110Z,108.85
2024-04-10T04:21:53.115Z,109.05
2024-04-10T04:22:53.179Z,107.85
2024-04-10T04:23:53.148Z,107.88
2024-04-10T04:24:53.142Z,109.35
2024-04-10T04:25:53.239Z,106.33
2024-04-10T04:26:53.172Z,108.51
2024-04-10T04:27:53.167Z,110.03
2024-04-10T04:28:53.228Z,106.90
2024-04-10T04:29:53.188Z,107.53
2024-04-10T04:30:53.206Z,109.72
2024-04-10T04:31:53.253Z,108.91
2024-04-10T04:32:53.387Z,109.12
2024-04-10T04:33:53.284Z,105.94
2024-04-10T04:34:53.262Z,109.11
2024-04-10T04:35:53.239Z,111.78
2024-04-10T04:36:53.248Z,107.66
2024-04-10T04:37:53.276Z,108.07
2024-04-10T04:38:53.267Z,108.25
2024-04-10T04:39:53.280Z,106.31
2024-04-10T04:40:53.305Z,108.18
2024-04-10T04:41:53.291Z,107.81
2024-04-10T04:42:53.317Z,107.75
2024-04-10T04:43:53.429Z,109.26
2024-04-10T04:44:53.441Z,106.52
2024-04-10T04:45:53.427Z,108.67
2024-04-10T04:46:53.560Z,107.38
2024-04-10T04:47:53.561Z,107.17
2024-04-10T04:48:53.532Z,105.16
2024-04-10T04:49:53.562Z,106.91
2024-04-10T04:50:55.853Z,107.43
2024-04-10T04:51:53.584Z,106.24
2024-04-10T04:52:53.631Z,106.66
2024-04-10T04:53:53.604Z,106.80
2024-04-10T04:55:00.929Z,50.00
2024-04-10T04:56:00.946Z,50.00
2024-04-10T04:57:00.895Z,50.00
2024-04-10T04:58:00.874Z,50.00
2024-04-10T04:59:00.887Z,50.00
2024-04-10T05:00:00.848Z,51.61
2024-04-10T05:01:00.865Z,51.40
2024-04-10T05:02:00.912Z,50.37
2024-04-10T05:03:00.961Z,51.20
2024-04-10T05:04:00.923Z,52.22
2024-04-10T05:05:00.859Z,52.18
2024-04-10T05:06:00.803Z,52.65
2024-04-10T05:07:00.782Z,51.65
2024-04-10T05:08:00.753Z,51.89
2024-04-10T05:09:00.731Z,53.31
2024-04-10T05:10:00.724Z,50.57
2024-04-10T05:11:00.853Z,50.86
2024-04-10T05:12:03.763Z,54.03
2024-04-10T05:13:00.690Z,53.91
2024-04-10T05:14:00.646Z,54.00
2024-04-10T05:15:00.615Z,53.69
2024-04-10T05:16:00.631Z,52.99
2024-04-10T05:17:00.618Z,49.82
2024-04-10T05:18:00.637Z,51.42
2024-04-10T05:19:00.547Z,52.30
2024-04-10T05:20:00.582Z,51.79
2024-04-10T05:21:00.498Z,51.76
2024-04-10T05:22:00.488Z,53.30
2024-04-10T05:23:00.480Z,50.87
2024-04-10T05:24:00.438Z,53.38
2024-04-10T05:25:00.427Z,51.41
2024-04-10T05:26:00.426Z,50.34
2024-04-10T05:27:00.399Z,50.00
2024-04-10T05:28:00.415Z,51.43
2024-04-10T05:29:00.439Z,50.00
2024-04-10T05:30:01.128Z,52.60
2024-04-10T05:31:00.346Z,55.60
2024-04-10T05:32:00.505Z,59.76
2024-04-10T05:33:00.443Z,61.63
2024-04-10T05:34:00.438Z,57.69
2024-04-10T05:35:01.383Z,57.71
2024-04-10T05:36:00.328Z,46.74
2024-04-10T05:37:00.359Z,35.44
2024-04-10T05:38:00.445Z,25.30
2024-04-10T05:39:00.323Z,10.65
2024-04-10T05:40:01.206Z,19.75
2024-04-10T05:41:00.419Z,28.23
2024-04-10T05:42:00.321Z,39.94
2024-04-10T05:43:00.328Z,50.03
2024-04-10T05:44:01.109Z,50.00
2024-04-10T05:45:02.150Z,49.74
2024-04-10T05:46:00.374Z,51.28
2024-04-10T05:47:00.699Z,49.92
2024-04-10T05:48:00.624Z,50.34
2024-04-10T05:49:00.709Z,50.02
2024-04-10T05:50:00.730Z,50.79
2024-04-10T05:51:00.606Z,50.35
2024-04-10T05:52:01.585Z,50.00
2024-04-10T05:53:02.684Z,50.27
2024-04-10T05:54:00.768Z,50.09
2024-04-10T05:55:00.782Z,51.01
2024-04-10T05:56:00.765Z,51.94
2024-04-10T05:57:00.738Z,50.63
2024-04-10T05:58:00.759Z,51.05
2024-04-10T05:59:00.802Z,52.79
2024-04-10T06:00:00.776Z,52.20
2024-04-10T06:01:00.818Z,53.73
2024-04-10T06:02:00.944Z,56.81
2024-04-10T06:03:01.018Z,62.13
2024-04-10T06:04:00.841Z,63.56
2024-04-10T06:05:00.778Z,70.67
2024-04-10T06:06:00.701Z,70.83
2024-04-10T06:07:00.683Z,76.94
2024-04-10T06:08:00.708Z,85.06
2024-04-10T06:09:00.684Z,86.26
2024-04-10T06:10:00.679Z,93.01
2024-04-10T06:11:00.668Z,98.42
2024-04-10T06:12:00.989Z,104.21
2024-04-10T06:13:00.633Z,108.70
2024-04-10T06:14:00.697Z,114.55
2024-04-10T06:15:00.592Z,118.93
2024-04-10T06:16:00.627Z,126.83
2024-04-10T06:17:00.576Z,131.73
2024-04-10T06:18:00.615Z,137.75
2024-04-10T06:19:00.508Z,145.65
2024-04-10T06:20:00.698Z,151.86
2024-04-10T06:21:00.491Z,159.08
2024-04-10T06:22:00.464Z,164.43
2024-04-10T06:23:00.617Z,169.08
2024-04-10T06:24:00.433Z,175.60
2024-04-10T06:25:00.447Z,178.59
2024-04-10T06:26:00.517Z,183.27
2024-04-10T06:27:00.419Z,184.59
2024-04-10T06:28:00.368Z,185.73
2024-04-10T06:29:00.378Z,182.38
2024-04-10T06:30:00.337Z,181.22
2024-04-10T06:31:00.296Z,176.41
2024-04-10T06:32:00.339Z,172.84
2024-04-10T06:33:00.394Z,172.49
2024-04-10T06:34:00.335Z,166.26
2024-04-10T06:35:00.302Z,163.40
2024-04-10T06:36:01.004Z,162.05
2024-04-10T06:37:00.235Z,157.02
2024-04-10T06:38:00.269Z,152.96
2024-04-10T06:39:00.191Z,149.78
2024-04-10T06:40:00.182Z,147.49
2024-04-10T06:41:00.265Z,144.76
2024-04-10T06:42:00.161Z,140.39
2024-04-10T06:43:00.142Z,138.70
2024-04-10T06:44:00.175Z,138.97
2024-04-10T06:45:00.136Z,133.42
2024-04-10T06:46:00.136Z,132.74
2024-04-10T06:47:00.285Z,127.61
2024-04-10T06:48:00.248Z,124.50
2024-04-10T06:49:00.295Z,122.26
2024-04-10T06:50:00.172Z,119.80
2024-04-10T06:51:00.070Z,116.07
2024-04-10T06:52:00.087Z,113.12
2024-04-10T06:53:00.101Z,110.76
2024-04-10T06:54:00.061Z,107.98
2024-04-10T06:55:00.046Z,105.32
2024-04-10T06:56:00.071Z,103.05
2024-04-10T06:57:00.016Z,100.29
2024-04-10T06:58:00.038Z,99.18
2024-04-10T06:59:00.005Z,94.40
2024-04-10T06:59:59.962Z,92.49
2024-04-10T07:01:00.006Z,91.18
2024-04-10T07:01:59.966Z,92.28
2024-04-10T07:02:59.924Z,90.32
2024-04-10T07:03:59.939Z,88.14
2024-04-10T07:05:00.669Z,87.82
2024-04-10T07:05:59.985Z,87.47
2024-04-10T07:07:00.036Z,86.37
2024-04-10T07:08:00.100Z,84.69
2024-04-10T07:09:00.119Z,84.86
2024-04-10T07:10:00.240Z,82.56
2024-04-10T07:11:00.354Z,81.15
2024-04-10T07:12:00.425Z,79.02
2024-04-10T07:13:00.319Z,79.38
2024-04-10T07:14:00.409Z,77.49
2024-04-10T07:15:01.110Z,77.79
2024-04-10T07:16:00.588Z,76.81
2024-04-10T07:17:00.539Z,75.76
2024-04-10T07:18:00.571Z,77.65
2024-04-10T07:19:00.866Z,79.54
2024-04-10T07:20:01.119Z,84.42
2024-04-10T07:21:00.563Z,89.27
2024-04-10T07:22:01.463Z,87.98
2024-04-10T07:23:00.593Z,92.46
2024-04-10T07:24:01.481Z,100.92
2024-04-10T07:25:00.558Z,107.24
2024-04-10T07:26:01.202Z,112.48
2024-04-10T07:27:00.563Z,116.24
2024-04-10T07:28:00.547Z,118.61
2024-04-10T07:29:00.880Z,122.82
2024-04-10T07:30:00.526Z,126.61
2024-04-10T07:31:00.539Z,132.10
2024-04-10T07:32:00.623Z,137.26
2024-04-10T07:33:00.837Z,140.68
2024-04-10T07:34:01.116Z,141.53
2024-04-10T07:35:01.660Z,148.50
2024-04-10T07:36:00.678Z,154.24
2024-04-10T07:37:00.721Z,157.75
2024-04-10T07:38:00.826Z,160.89
2024-04-10T07:39:00.818Z,161.19
2024-04-10T07:40:02.288Z,162.94
2024-04-10T07:41:00.989Z,163.64
2024-04-10T07:42:00.963Z,164.37
2024-04-10T07:43:01.006Z,163.92
2024-04-10T07:44:01.092Z,162.64
2024-04-10T07:45:01.113Z,161.34
2024-04-10T07:46:01.151Z,157.55
2024-04-10T07:47:01.328Z,151.50
2024-04-10T07:48:01.298Z,144.94
2024-04-10T07:49:01.451Z,133.64
2024-04-10T07:50:01.188Z,125.31
2024-04-10T07:51:01.294Z,114.26
2024-04-10T07:52:01.285Z,104.36
2024-04-10T07:53:01.316Z,93.80
2024-04-10T07:54:01.335Z,83.14
2024-04-10T07:55:02.051Z,74.85
2024-04-10T07:56:01.396Z,65.29
2024-04-10T07:57:01.356Z,56.66
2024-04-10T07:58:01.427Z,50.00
2024-04-10T07:59:01.425Z,49.03
2024-04-10T08:00:01.423Z,51.38
2024-04-10T08:01:01.480Z,49.48
2024-04-10T08:02:01.553Z,49.21
2024-04-10T08:03:01.591Z,48.98
2024-04-10T08:04:01.706Z,52.29
2024-04-10T08:05:01.680Z,50.75
2024-04-10T08:06:01.672Z,50.48
2024-04-10T08:07:01.644Z,50.00
2024-04-10T08:08:01.687Z,52.69
2024-04-10T08:09:01.695Z,51.44
2024-04-10T08:10:01.803Z,52.55
2024-04-10T08:11:01.844Z,53.51
2024-04-10T08:12:02.749Z,52.79
2024-04-10T08:13:01.802Z,51.03
2024-04-10T08:14:01.871Z,52.91
2024-04-10T08:15:01.877Z,52.71
2024-04-10T08:16:02.050Z,53.23
2024-04-10T08:17:02.042Z,53.84
2024-04-10T08:18:02.656Z,51.32
2024-04-10T08:19:02.037Z,51.08
2024-04-10T08:20:02.725Z,51.44
2024-04-10T08:21:02.108Z,52.62
2024-04-10T08:22:02.167Z,54.21
2024-04-10T08:23:02.246Z,53.67
2024-04-10T08:24:02.237Z,54.02
2024-04-10T08:25:02.263Z,52.86
2024-04-10T08:26:02.342Z,52.76
2024-04-10T08:27:04.163Z,52.08
2024-04-10T08:28:02.352Z,53.30
2024-04-10T08:29:02.448Z,51.09
2024-04-10T08:30:02.441Z,53.22
2024-04-10T08:31:02.516Z,52.41
2024-04-10T08:32:02.633Z,53.47
2024-04-10T08:33:02.877Z,52.12
2024-04-10T08:34:02.897Z,52.30
2024-04-10T08:35:02.886Z,52.22
2024-04-10T08:36:02.820Z,54.03
2024-04-10T08:37:02.917Z,54.85
2024-04-10T08:38:02.939Z,55.74
2024-04-10T08:39:02.938Z,60.12
2024-04-10T08:40:03.062Z,62.00
2024-04-10T08:41:03.006Z,65.61
2024-04-10T08:42:02.996Z,68.49
2024-04-10T08:43:03.702Z,73.22
2024-04-10T08:44:03.032Z,77.13
2024-04-10T08:45:03.045Z,80.55
2024-04-10T08:46:03.077Z,84.62
2024-04-10T08:47:03.201Z,94.01
2024-04-10T08:48:03.293Z,98.08
2024-04-10T08:49:03.419Z,101.72
2024-04-10T08:50:03.278Z,103.84
2024-04-10T08:51:04.255Z,104.09
2024-04-10T08:52:03.441Z,105.01
2024-04-10T08:53:03.219Z,108.44
2024-04-10T08:54:03.201Z,114.94
2024-04-10T08:55:03.214Z,125.19
2024-04-10T08:56:10.007Z,130.49
2024-04-10T08:57:04.133Z,130.77
2024-04-10T08:58:03.161Z,132.14
2024-04-10T08:59:03.089Z,135.67
2024-04-10T09:00:03.078Z,142.14
2024-04-10T09:01:03.134Z,154.59
2024-04-10T09:02:03.118Z,160.61
2024-04-10T09:03:03.048Z,164.29
2024-04-10T09:04:03.113Z,169.24
2024-04-10T09:05:03.095Z,172.28
2024-04-10T09:06:02.957Z,174.98
2024-04-10T09:07:03.220Z,180.61
2024-04-10T09:08:03.647Z,184.11
2024-04-10T09:09:02.864Z,189.80
2024-04-10T09:10:02.838Z,193.57
2024-04-10T09:11:02.978Z,197.52
2024-04-10T09:12:02.840Z,199.46
2024-04-10T09:13:03.380Z,200.00
2024-04-10T09:14:02.762Z,198.94
2024-04-10T09:15:02.706Z,199.94
2024-04-10T09:16:02.690Z,197.69
2024-04-10T09:17:02.794Z,200.00
2024-04-10T09:18:02.682Z,199.85
2024-04-10T09:19:02.700Z,200.00
2024-04-10T09:20:02.658Z,199.49
2024-04-10T09:21:02.644Z,199.16
2024-04-10T09:22:03.594Z,199.84
2024-04-10T09:23:02.653Z,199.04
2024-04-10T09:24:02.675Z,197.05
2024-04-10T09:25:03.614Z,198.53
2024-04-10T09:26:02.620Z,200.00
2024-04-10T09:27:02.707Z,199.59
2024-04-10T09:28:02.614Z,198.67
2024-04-10T09:29:02.577Z,199.68
2024-04-10T09:30:02.749Z,199.80
2024-04-10T09:31:02.553Z,201.33
2024-04-10T09:32:02.532Z,198.54
2024-04-10T09:33:02.675Z,199.78
2024-04-10T09:34:02.702Z,198.88
2024-04-10T09:35:02.504Z,199.46
2024-04-10T09:36:02.571Z,199.40
2024-04-10T09:37:02.475Z,199.27
2024-04-10T09:38:02.499Z,199.34
2024-04-10T09:39:02.596Z,199.72
2024-04-10T09:40:02.421Z,199.67
2024-04-10T09:41:02.444Z,199.75
2024-04-10T09:42:02.774Z,200.00
2024-04-10T09:43:02.378Z,199.20
2024-04-10T09:44:02.383Z,198.73
2024-04-10T09:45:02.508Z,199.23
2024-04-10T09:46:02.370Z,198.98
2024-04-10T09:47:02.732Z,199.71
2024-04-10T09:48:02.577Z,198.48
2024-04-10T09:49:02.420Z,199.42
2024-04-10T09:50:02.353Z,199.09
2024-04-10T09:51:02.350Z,200.00
2024-04-10T09:52:02.326Z,198.92
2024-04-10T09:53:02.323Z,199.40
2024-04-10T09:54:02.421Z,199.39
2024-04-10T09:55:02.304Z,198.73
2024-04-10T09:56:02.286Z,199.56
2024-04-10T09:57:02.309Z,198.51
2024-04-10T09:58:02.275Z,198.58
2024-04-10T09:59:02.273Z,199.52
2024-04-10T10:00:02.533Z,200.00
2024-04-10T10:01:02.311Z,197.79
2024-04-10T10:02:02.255Z,199.16
2024-04-10T10:03:02.295Z,198.29
2024-04-10T10:04:02.350Z,199.47
2024-04-10T10:05:02.319Z,199.37
2024-04-10T10:06:02.335Z,199.01
2024-04-10T10:07:02.239Z,193.56
2024-04-10T10:08:04.199Z,187.39
2024-04-10T10:09:02.348Z,177.61
2024-04-10T10:10:02.494Z,165.15
2024-04-10T10:11:02.460Z,155.38
2024-04-10T10:12:02.656Z,145.10
2024-04-10T10:13:02.382Z,134.98
2024-04-10T10:14:02.388Z,120.34
2024-04-10T10:15:02.666Z,111.39
2024-04-10T10:16:02.515Z,100.57
2024-04-10T10:17:02.440Z,91.38
2024-04-10T10:18:04.153Z,85.23
2024-04-10T10:19:02.697Z,82.26
2024-04-10T10:20:02.478Z,73.73
2024-04-10T10:21:02.576Z,73.38
2024-04-10T10:22:03.919Z,73.11
2024-04-10T10:23:02.475Z,74.56
2024-04-10T10:24:02.498Z,74.30
2024-04-10T10:25:02.558Z,76.85
2024-04-10T10:26:02.370Z,79.29
2024-04-10T10:27:02.420Z,83.47
2024-04-10T10:28:02.342Z,85.63
2024-04-10T10:29:04.727Z,89.85
2024-04-10T10:30:02.505Z,90.07
2024-04-10T10:31:02.282Z,91.31
2024-04-10T10:32:02.294Z,94.61
2024-04-10T10:33:02.380Z,100.14
2024-04-10T10:34:02.356Z,111.38
2024-04-10T10:35:02.166Z,117.80
2024-04-10T10:36:02.192Z,125.13
2024-04-10T10:37:02.128Z,130.07
2024-04-10T10:38:03.624Z,136.18
2024-04-10T10:39:02.101Z,136.34
2024-04-10T10:40:02.024Z,137.81
2024-04-10T10:41:02.035Z,142.18
2024-04-10T10:42:02.307Z,149.99
2024-04-10T10:43:01.954Z,162.53
2024-04-10T10:44:01.912Z,166.89
2024-04-10T10:45:01.991Z,172.37
2024-04-10T10:46:01.847Z,176.09
2024-04-10T10:47:01.873Z,184.14
2024-04-10T10:48:01.972Z,190.02
2024-04-10T10:49:01.846Z,194.93
2024-04-10T10:50:01.692Z,199.80
2024-04-10T10:51:01.749Z,200.00
2024-04-10T10:52:01.622Z,199.56
2024-04-10T10:53:01.589Z,199.61
2024-04-10T10:54:01.712Z,199.88
2024-04-10T10:55:01.536Z,200.00
2024-04-10T10:56:01.483Z,199.96
2024-04-10T10:57:01.477Z,200.00
2024-04-10T10:58:01.402Z,199.73
2024-04-10T10:59:01.358Z,199.88
2024-04-10T11:00:01.427Z,200.00
2024-04-10T11:01:01.323Z,198.51
2024-04-10T11:02:01.253Z,199.98
2024-04-10T11:03:05.349Z,198.41
2024-04-10T11:04:02.315Z,198.56
2024-04-10T11:05:01.170Z,199.28
2024-04-10T11:06:01.205Z,200.98
2024-04-10T11:07:01.072Z,203.50
2024-04-10T11:08:01.034Z,207.87
2024-04-10T11:09:01.112Z,200.00
2024-04-10T11:10:00.952Z,199.63
2024-04-10T11:11:00.951Z,199.40
2024-04-10T11:12:00.926Z,200.00
2024-04-10T11:13:00.882Z,199.79
2024-04-10T11:14:00.810Z,198.93
2024-04-10T11:15:01.011Z,199.07
2024-04-10T11:16:00.886Z,198.93
2024-04-10T11:17:01.096Z,199.63
2024-04-10T11:18:00.954Z,199.58
2024-04-10T11:19:00.906Z,199.44
2024-04-10T11:20:00.879Z,198.75
2024-04-10T11:21:00.973Z,200.00
2024-04-10T11:22:00.893Z,199.00
2024-04-10T11:23:00.882Z,199.11
2024-04-10T11:24:01.128Z,199.07
2024-04-10T11:25:00.851Z,199.24
2024-04-10T11:26:00.837Z,199.62
2024-04-10T11:27:01.054Z,199.86
2024-04-10T11:28:00.808Z,199.06
2024-04-10T11:29:00.795Z,199.26
2024-04-10T11:30:00.889Z,199.13
2024-04-10T11:31:00.776Z,200.00
2024-04-10T11:32:00.727Z,199.76
2024-04-10T11:33:00.908Z,199.25
2024-04-10T11:34:01.063Z,199.93
2024-04-10T11:35:00.687Z,199.19
2024-04-10T11:36:00.784Z,199.03
2024-04-10T11:37:00.692Z,199.67
2024-04-10T11:38:00.600Z,199.72
2024-04-10T11:39:00.763Z,199.09
2024-04-10T11:40:00.578Z,198.32
2024-04-10T11:41:03.403Z,199.44
2024-04-10T11:42:00.564Z,199.86
2024-04-10T11:43:00.494Z,199.71
2024-04-10T11:44:00.439Z,198.93
2024-04-10T11:45:00.681Z,199.99
2024-04-10T11:46:00.369Z,199.54
2024-04-10T11:47:00.375Z,198.82
2024-04-10T11:48:00.586Z,198.19
2024-04-10T11:49:00.451Z,198.88
2024-04-10T11:50:00.241Z,198.17
2024-04-10T11:51:00.329Z,200.00
2024-04-10T11:52:00.172Z,197.99
2024-04-10T11:53:00.129Z,197.93
2024-04-10T11:54:00.189Z,198.61
2024-04-10T11:55:00.091Z,198.60
2024-04-10T11:56:00.046Z,198.18
2024-04-10T11:57:00.111Z,198.21
2024-04-10T11:58:00.716Z,199.14
2024-04-10T11:59:00.005Z,197.75
2024-04-10T12:00:00.110Z,198.52
2024-04-10T12:00:59.995Z,198.96
2024-04-10T12:01:59.870Z,198.40
2024-04-10T12:02:59.955Z,197.10
2024-04-10T12:03:59.945Z,196.07
2024-04-10T12:04:59.824Z,196.63
2024-04-10T12:05:59.809Z,194.23
2024-04-10T12:06:59.748Z,193.99
2024-04-10T12:07:59.705Z,192.87
2024-04-10T12:08:59.948Z,192.93
2024-04-10T12:09:59.617Z,191.11
2024-04-10T12:10:59.595Z,190.94
2024-04-10T12:11:59.643Z,189.50
2024-04-10T12:12:59.545Z,188.87
2024-04-10T12:13:59.488Z,188.86
2024-04-10T12:14:59.512Z,188.08
2024-04-10T12:15:59.420Z,188.23
2024-04-10T12:16:59.441Z,186.95
2024-04-10T12:17:59.388Z,186.43
2024-04-10T12:18:59.389Z,186.02
2024-04-10T12:19:59.308Z,186.41
2024-04-10T12:20:59.309Z,185.49
2024-04-10T12:21:59.239Z,185.04
2024-04-10T12:22:59.207Z,185.66
2024-04-10T12:23:59.198Z,184.73
2024-04-10T12:24:59.157Z,186.59
2024-04-10T12:25:59.113Z,185.17
2024-04-10T12:26:59.160Z,183.79
2024-04-10T12:27:59.037Z,185.05
2024-04-10T12:28:59.004Z,185.72
2024-04-10T12:29:59.083Z,184.83
2024-04-10T12:30:58.928Z,185.14
2024-04-10T12:31:58.908Z,185.60
2024-04-10T12:32:59.040Z,185.13
2024-04-10T12:33:59.036Z,185.78